createdAt,value
2022-12-27T00:01:37.056Z,81.98
2022-12-27T00:04:06.863Z,81.96
2022-12-27T00:06:33.654Z,81.69
2022-12-27T00:09:01.777Z,81.63
2022-12-27T00:11:31.691Z,82.02
2022-12-27T00:14:04.877Z,82.00
2022-12-27T00:17:01.458Z,81.76
2022-12-27T00:19:55.086Z,81.91
2022-12-27T00:22:24.321Z,82.14
2022-12-27T00:24:51.083Z,82.43
2022-12-27T00:27:18.043Z,82.18
2022-12-27T00:29:44.971Z,82.28
2022-12-27T00:32:12.138Z,82.30
2022-12-27T00:34:39.029Z,82.13
2022-12-27T00:37:06.793Z,81.98
2022-12-27T00:39:33.643Z,81.81
2022-12-27T00:42:00.504Z,81.89
2022-12-27T00:44:27.333Z,82.02
2022-12-27T00:46:54.203Z,81.84
2022-12-27T00:49:23.465Z,82.03
2022-12-27T00:51:50.650Z,82.03
2022-12-27T00:54:17.404Z,82.02
2022-12-27T00:56:44.329Z,81.90
2022-12-27T00:59:12.425Z,81.77
2022-12-27T01:01:40.952Z,81.92
2022-12-27T01:04:08.353Z,81.85
2022-12-27T01:06:35.881Z,81.61
2022-12-27T01:09:07.033Z,81.95
2022-12-27T01:11:37.495Z,82.04
2022-12-27T01:14:05.653Z,82.42
2022-12-27T01:16:35.124Z,82.58
2022-12-27T01:19:07.576Z,82.38
2022-12-27T01:21:34.461Z,82.58
2022-12-27T01:24:01.317Z,82.69
2022-12-27T01:26:28.201Z,82.56
2022-12-27T01:28:55.113Z,82.90
2022-12-27T01:31:36.422Z,82.97
2022-12-27T01:34:03.336Z,82.87
2022-12-27T01:36:31.697Z,82.83
2022-12-27T01:38:59.882Z,82.45
2022-12-27T01:41:48.976Z,82.71
2022-12-27T01:44:44.065Z,82.82
2022-12-27T01:47:50.583Z,83.09
2022-12-27T01:50:40.154Z,82.91
2022-12-27T01:53:09.611Z,82.61
2022-12-27T01:55:36.389Z,82.69
2022-12-27T01:58:19.932Z,82.63
2022-12-27T02:00:48.386Z,82.70
2022-12-27T02:03:38.796Z,82.54
2022-12-27T02:06:08.453Z,82.21
2022-12-27T02:08:53.643Z,82.31
2022-12-27T02:11:51.362Z,82.29
2022-12-27T02:14:32.540Z,82.28
2022-12-27T02:17:04.959Z,82.66
2022-12-27T02:19:41.006Z,82.46
2022-12-27T02:22:57.656Z,82.47
2022-12-27T02:25:57.898Z,82.32
2022-12-27T02:28:46.382Z,82.41
2022-12-27T02:31:54.960Z,82.60
2022-12-27T02:34:26.647Z,82.42
2022-12-27T02:36:59.329Z,82.65
2022-12-27T02:39:27.305Z,82.57
2022-12-27T02:42:13.549Z,82.52
2022-12-27T02:44:58.946Z,82.61
2022-12-27T02:47:45.744Z,82.33
2022-12-27T02:50:33.277Z,82.42
2022-12-27T02:53:43.386Z,82.63
2022-12-27T02:56:52.275Z,82.08
2022-12-27T03:00:08.056Z,81.89
2022-12-27T03:02:58.286Z,82.09
2022-12-27T03:05:38.216Z,81.61
2022-12-27T03:08:16.351Z,81.78
2022-12-27T03:11:17.802Z,81.81
2022-12-27T03:14:10.036Z,81.83
2022-12-27T03:16:56.090Z,81.95
2022-12-27T03:19:57.707Z,82.24
2022-12-27T03:22:46.077Z,82.65
2022-12-27T03:25:31.036Z,82.26
2022-12-27T03:28:42.659Z,81.88
2022-12-27T03:31:34.373Z,81.64
2022-12-27T03:34:27.269Z,82.14
2022-12-27T03:37:15.587Z,82.29
2022-12-27T03:40:17.327Z,82.38
2022-12-27T03:43:09.078Z,82.15
2022-12-27T03:46:03.063Z,82.20
2022-12-27T03:48:36.283Z,82.08
2022-12-27T03:51:06.008Z,81.76
2022-12-27T03:53:45.114Z,82.10
2022-12-27T03:56:12.244Z,82.01
2022-12-27T03:58:38.989Z,82.23
2022-12-27T04:01:06.008Z,81.97
2022-12-27T04:03:33.727Z,82.06
2022-12-27T04:06:00.553Z,82.17
2022-12-27T04:08:46.208Z,81.95
2022-12-27T04:11:31.517Z,81.98
2022-12-27T04:14:17.061Z,82.33
2022-12-27T04:17:02.840Z,82.05
2022-12-27T04:19:48.443Z,82.42
2022-12-27T04:22:33.800Z,82.25
2022-12-27T04:25:19.374Z,82.03
2022-12-27T04:28:04.723Z,82.46
2022-12-27T04:30:50.989Z,82.43
2022-12-27T04:33:36.621Z,82.63
2022-12-27T04:36:06.379Z,82.56
2022-12-27T04:38:33.648Z,82.66
2022-12-27T04:41:19.124Z,82.75
2022-12-27T04:44:05.118Z,82.58
2022-12-27T04:46:50.505Z,82.42
2022-12-27T04:49:44.561Z,82.65
2022-12-27T04:52:37.652Z,82.45
2022-12-27T04:55:23.506Z,82.55
2022-12-27T04:57:51.814Z,82.55
2022-12-27T05:00:38.890Z,82.31
2022-12-27T05:03:18.765Z,82.04
2022-12-27T05:05:46.528Z,82.00
2022-12-27T05:08:33.543Z,82.09
2022-12-27T05:11:19.204Z,81.81
2022-12-27T05:14:01.298Z,82.27
2022-12-27T05:16:37.145Z,82.14
2022-12-27T05:19:06.142Z,82.17
2022-12-27T05:21:40.675Z,82.39
2022-12-27T05:24:26.239Z,82.14
2022-12-27T05:26:56.129Z,82.13
2022-12-27T05:29:22.927Z,82.24
2022-12-27T05:31:49.821Z,82.30
2022-12-27T05:34:16.773Z,82.33
2022-12-27T05:36:44.434Z,82.28
2022-12-27T05:39:11.272Z,82.09
2022-12-27T05:41:38.109Z,82.27
2022-12-27T05:44:10.129Z,82.21
2022-12-27T05:46:37.120Z,82.04
2022-12-27T05:49:15.943Z,82.06
2022-12-27T05:51:42.969Z,81.99
2022-12-27T05:54:09.924Z,81.99
2022-12-27T05:56:37.449Z,81.90
2022-12-27T05:59:04.522Z,81.71
2022-12-27T06:01:31.560Z,82.10
2022-12-27T06:03:58.318Z,82.08
2022-12-27T06:06:25.176Z,82.13
2022-12-27T06:08:52.107Z,82.00
2022-12-27T06:11:19.770Z,82.05
2022-12-27T06:13:53.549Z,81.48
2022-12-27T06:16:22.399Z,81.95
2022-12-27T06:18:49.419Z,81.65
2022-12-27T06:21:37.533Z,81.91
2022-12-27T06:27:23.067Z,82.22
2022-12-27T06:29:49.907Z,82.38
2022-12-27T06:32:17.791Z,82.51
2022-12-27T06:34:45.741Z,82.75
2022-12-27T06:37:12.725Z,82.81
2022-12-27T06:39:39.638Z,82.88
2022-12-27T06:42:06.439Z,82.93
2022-12-27T06:44:33.255Z,83.02
2022-12-27T06:47:00.074Z,83.54
2022-12-27T06:49:27.097Z,83.43
2022-12-27T06:51:59.565Z,83.27
2022-12-27T06:54:27.148Z,83.36
2022-12-27T06:56:53.881Z,83.54
2022-12-27T06:59:20.785Z,83.53
2022-12-27T07:01:47.621Z,83.43
2022-12-27T07:04:15.055Z,83.28
2022-12-27T07:06:41.929Z,83.13
2022-12-27T07:09:08.973Z,83.05
2022-12-27T07:11:38.044Z,82.93
2022-12-27T07:14:05.125Z,83.26
2022-12-27T07:16:31.981Z,83.26
2022-12-27T07:19:00.169Z,83.12
2022-12-27T07:21:30.540Z,83.12
2022-12-27T07:23:58.200Z,82.98
2022-12-27T07:26:29.792Z,82.61
2022-12-27T07:28:59.677Z,82.79
2022-12-27T07:31:29.788Z,82.43
2022-12-27T07:33:58.432Z,82.07
2022-12-27T07:36:28.322Z,81.77
2022-12-27T07:38:55.966Z,81.96
2022-12-27T07:41:24.917Z,82.27
2022-12-27T07:43:53.144Z,82.06
2022-12-27T07:46:22.989Z,82.28
2022-12-27T07:48:50.543Z,81.86
2022-12-27T07:51:18.923Z,81.45
2022-12-27T07:53:49.309Z,81.60
2022-12-27T07:56:25.569Z,81.31
2022-12-27T07:58:53.949Z,81.12
2022-12-27T08:01:22.518Z,81.38
2022-12-27T08:03:49.731Z,81.10
2022-12-27T08:06:27.543Z,81.26
2022-12-27T08:08:56.175Z,81.31
2022-12-27T08:11:23.360Z,81.56
2022-12-27T08:13:50.284Z,81.63
2022-12-27T08:16:20.852Z,81.57
2022-12-27T08:18:48.167Z,81.25
2022-12-27T08:21:18.870Z,81.32
2022-12-27T08:23:47.213Z,80.90
2022-12-27T08:26:14.289Z,80.83
2022-12-27T08:29:10.462Z,80.74
2022-12-27T08:31:41.027Z,80.50
2022-12-27T08:34:08.072Z,80.11
2022-12-27T08:36:54.554Z,79.87
2022-12-27T08:39:21.595Z,78.85
2022-12-27T08:41:48.455Z,79.25
2022-12-27T08:44:15.344Z,78.82
2022-12-27T08:46:42.274Z,78.67
2022-12-27T08:49:09.336Z,78.93
2022-12-27T08:51:48.627Z,79.17
2022-12-27T08:54:41.974Z,79.20
2022-12-27T08:57:08.748Z,79.61
2022-12-27T08:59:35.442Z,78.99
2022-12-27T09:02:02.479Z,79.42
2022-12-27T09:04:29.355Z,79.35
2022-12-27T09:06:56.288Z,79.26
2022-12-27T09:09:23.110Z,79.02
2022-12-27T09:11:50.052Z,79.26
2022-12-27T09:14:17.186Z,79.75
2022-12-27T09:16:44.060Z,79.72
2022-12-27T09:19:11.302Z,79.63
2022-12-27T09:25:12.029Z,79.24
2022-12-27T09:27:39.308Z,79.12
2022-12-27T09:30:07.784Z,79.73
2022-12-27T09:32:35.325Z,79.10
2022-12-27T09:37:31.555Z,79.01
2022-12-27T09:39:59.131Z,79.06
2022-12-27T09:43:10.476Z,78.82
2022-12-27T09:45:40.109Z,78.30
2022-12-27T09:48:35.507Z,78.43
2022-12-27T09:51:12.712Z,78.56
2022-12-27T09:53:47.187Z,78.78
2022-12-27T09:56:35.684Z,78.66
2022-12-27T09:59:34.438Z,78.52
2022-12-27T10:02:02.845Z,78.43
2022-12-27T10:05:09.780Z,78.37
2022-12-27T10:07:26.248Z,77.65
2022-12-27T10:10:04.349Z,77.72
2022-12-27T10:12:50.068Z,77.37
2022-12-27T10:16:01.127Z,76.87
2022-12-27T10:18:50.019Z,76.92
2022-12-27T10:21:25.415Z,77.14
2022-12-27T10:23:56.592Z,76.90
2022-12-27T10:26:23.864Z,76.76
2022-12-27T10:28:58.247Z,76.09
2022-12-27T10:31:26.480Z,76.46
2022-12-27T10:33:54.051Z,76.57
2022-12-27T10:36:29.869Z,76.31
2022-12-27T10:38:56.998Z,76.21
2022-12-27T10:41:29.499Z,76.53
2022-12-27T10:43:56.376Z,76.32
2022-12-27T10:46:32.166Z,76.84
2022-12-27T10:49:20.543Z,76.94
2022-12-27T10:51:49.796Z,76.00
2022-12-27T10:54:29.371Z,76.68
2022-12-27T10:57:15.772Z,75.29
2022-12-27T10:59:42.688Z,75.46
2022-12-27T11:02:18.511Z,75.30
2022-12-27T11:04:59.940Z,75.86
2022-12-27T11:07:34.670Z,75.80
2022-12-27T11:10:17.871Z,75.50
2022-12-27T11:13:05.498Z,76.04
2022-12-27T11:15:38.610Z,76.05
2022-12-27T11:18:17.383Z,75.91
2022-12-27T11:20:58.067Z,75.17
2022-12-27T11:23:46.611Z,75.32
2022-12-27T11:30:05.846Z,75.21
2022-12-27T11:32:35.237Z,75.08
2022-12-27T11:35:02.258Z,75.54
2022-12-27T11:37:29.213Z,75.67
2022-12-27T11:40:30.556Z,75.56
2022-12-27T11:43:08.332Z,75.05
2022-12-27T11:45:47.774Z,75.22
2022-12-27T11:48:30.303Z,74.16
2022-12-27T11:51:39.622Z,74.61
2022-12-27T11:54:49.557Z,75.19
2022-12-27T11:57:34.670Z,75.82
2022-12-27T12:00:20.020Z,75.97
2022-12-27T12:03:05.553Z,76.24
2022-12-27T12:05:57.816Z,75.56
2022-12-27T12:08:40.066Z,74.75
2022-12-27T12:11:09.581Z,74.56
2022-12-27T12:13:49.149Z,74.61
2022-12-27T12:16:47.905Z,74.83
2022-12-27T12:19:23.912Z,75.07
2022-12-27T12:22:04.952Z,74.96
2022-12-27T12:24:58.819Z,74.49
2022-12-27T12:27:48.141Z,74.90
2022-12-27T12:30:37.919Z,75.15
2022-12-27T12:33:26.163Z,73.90
2022-12-27T12:36:11.710Z,74.52
2022-12-27T12:39:10.933Z,73.61
2022-12-27T12:42:01.102Z,73.04
2022-12-27T12:44:39.547Z,72.45
2022-12-27T12:47:31.447Z,71.91
2022-12-27T12:50:33.064Z,72.55
2022-12-27T12:53:24.202Z,72.22
2022-12-27T12:55:56.827Z,72.61
2022-12-27T12:58:35.705Z,72.81
2022-12-27T13:01:37.308Z,72.58
2022-12-27T13:04:33.190Z,72.47
2022-12-27T13:07:17.963Z,72.12
2022-12-27T13:09:55.583Z,72.40
2022-12-27T13:12:57.950Z,72.77
2022-12-27T13:15:47.849Z,73.30
2022-12-27T13:18:46.819Z,72.74
2022-12-27T13:21:41.663Z,72.35
2022-12-27T13:24:14.851Z,72.80
2022-12-27T13:27:09.857Z,73.15
2022-12-27T13:30:02.996Z,73.29
2022-12-27T13:32:36.127Z,73.70
2022-12-27T13:35:31.536Z,73.25
2022-12-27T13:38:01.342Z,72.30
2022-12-27T13:40:49.909Z,72.05
2022-12-27T13:43:19.323Z,72.14
2022-12-27T13:46:29.873Z,72.16
2022-12-27T13:49:00.436Z,72.70
2022-12-27T13:51:46.004Z,72.46
2022-12-27T13:54:35.033Z,72.41
2022-12-27T13:57:26.605Z,72.08
2022-12-27T14:00:09.232Z,72.67
2022-12-27T14:02:50.813Z,73.15
2022-12-27T14:05:26.787Z,73.08
2022-12-27T14:08:21.851Z,73.13
2022-12-27T14:10:53.917Z,72.89
2022-12-27T14:13:42.850Z,73.26
2022-12-27T14:16:38.409Z,73.24
2022-12-27T14:19:14.376Z,72.83
2022-12-27T14:22:15.109Z,73.26
2022-12-27T14:25:13.196Z,73.23
2022-12-27T14:27:49.499Z,73.49
2022-12-27T14:30:37.755Z,73.86
2022-12-27T14:33:25.891Z,73.62
2022-12-27T14:36:30.842Z,73.90
2022-12-27T14:39:29.081Z,74.00
2022-12-27T14:42:04.830Z,73.70
2022-12-27T14:44:44.813Z,73.72
2022-12-27T14:47:36.203Z,73.96
2022-12-27T14:50:30.567Z,74.10
2022-12-27T14:53:18.531Z,74.15
2022-12-27T14:56:34.644Z,74.40
2022-12-27T14:59:23.643Z,74.41
2022-12-27T15:02:32.281Z,74.15
2022-12-27T15:05:20.357Z,74.05
2022-12-27T15:08:14.069Z,74.38
2022-12-27T15:11:06.255Z,73.91
2022-12-27T15:13:51.797Z,73.15
2022-12-27T15:16:37.287Z,73.60
2022-12-27T15:19:22.938Z,72.62
2022-12-27T15:22:18.953Z,72.51
2022-12-27T15:25:07.331Z,72.41
2022-12-27T15:27:54.243Z,72.05
2022-12-27T15:30:28.734Z,72.51
2022-12-27T15:33:32.338Z,73.09
2022-12-27T15:36:13.961Z,73.53
2022-12-27T15:38:59.761Z,73.94
2022-12-27T15:41:45.390Z,73.61
2022-12-27T15:44:30.268Z,74.04
2022-12-27T15:46:57.202Z,74.18
2022-12-27T15:49:42.707Z,74.45
2022-12-27T15:52:34.651Z,74.52
2022-12-27T15:55:32.367Z,74.88
2022-12-27T15:58:19.744Z,75.41
2022-12-27T16:01:19.212Z,75.46
2022-12-27T16:03:51.339Z,75.08
2022-12-27T16:06:33.504Z,75.33
2022-12-27T16:09:25.314Z,75.14
2022-12-27T16:12:00.589Z,74.86
2022-12-27T16:14:32.085Z,74.84
2022-12-27T16:17:34.104Z,74.25
2022-12-27T16:20:16.757Z,73.42
2022-12-27T16:26:04.623Z,73.37
2022-12-27T16:28:50.431Z,73.03
2022-12-27T16:31:20.497Z,73.09
2022-12-27T16:33:48.285Z,72.78
2022-12-27T16:36:15.186Z,72.76
2022-12-27T16:39:12.426Z,73.17
2022-12-27T16:41:54.881Z,73.07
2022-12-27T16:44:21.845Z,73.20
2022-12-27T16:47:25.834Z,73.68
2022-12-27T16:50:26.109Z,73.82
2022-12-27T16:53:13.361Z,73.73
2022-12-27T16:56:14.135Z,73.55
2022-12-27T16:58:58.585Z,73.74
2022-12-27T17:01:25.531Z,74.12
2022-12-27T17:03:54.118Z,74.31
2022-12-27T17:06:33.276Z,73.64
2022-12-27T17:09:11.853Z,73.93
2022-12-27T17:11:47.972Z,74.64
2022-12-27T17:14:56.175Z,74.71
2022-12-27T17:17:24.547Z,75.28
2022-12-27T17:19:57.106Z,75.06
2022-12-27T17:22:34.471Z,75.32
2022-12-27T17:25:03.485Z,75.33
2022-12-27T17:27:52.158Z,75.60
2022-12-27T17:30:25.487Z,75.35
2022-12-27T17:33:17.136Z,74.81
2022-12-27T17:36:22.775Z,74.65
2022-12-27T17:39:06.045Z,73.95
2022-12-27T17:41:56.498Z,74.09
2022-12-27T17:44:57.095Z,74.15
2022-12-27T17:47:43.974Z,73.51
2022-12-27T17:50:18.275Z,73.31
2022-12-27T17:53:22.221Z,73.35
2022-12-27T17:56:41.359Z,73.79
2022-12-27T17:59:24.942Z,73.52
2022-12-27T18:01:55.966Z,73.67
2022-12-27T18:04:31.649Z,73.92
2022-12-27T18:07:02.520Z,74.11
2022-12-27T18:10:08.424Z,74.04
2022-12-27T18:12:39.117Z,74.14
2022-12-27T18:15:06.445Z,73.96
2022-12-27T18:17:38.861Z,73.50
2022-12-27T18:20:25.925Z,74.34
2022-12-27T18:23:06.611Z,74.42
2022-12-27T18:25:36.506Z,74.44
2022-12-27T18:28:06.685Z,74.16
2022-12-27T18:30:41.550Z,73.38
2022-12-27T18:33:13.605Z,73.47
2022-12-27T18:35:46.089Z,72.62
2022-12-27T18:38:18.576Z,72.54
2022-12-27T18:40:58.371Z,72.18
2022-12-27T18:43:25.942Z,71.80
2022-12-27T18:45:56.401Z,72.32
2022-12-27T18:48:24.820Z,72.77
2022-12-27T18:50:54.282Z,72.97
2022-12-27T18:53:31.258Z,72.69
2022-12-27T18:56:03.953Z,71.98
2022-12-27T18:58:31.139Z,71.88
2022-12-27T19:01:40.906Z,72.69
2022-12-27T19:04:20.061Z,72.52
2022-12-27T19:06:59.152Z,72.71
2022-12-27T19:09:29.610Z,72.98
2022-12-27T19:12:01.865Z,72.71
2022-12-27T19:14:47.348Z,72.77
2022-12-27T19:17:25.242Z,73.40
2022-12-27T19:19:56.332Z,73.52
2022-12-27T19:22:36.051Z,73.57
2022-12-27T19:25:07.846Z,73.62
2022-12-27T19:27:34.792Z,73.88
2022-12-27T19:30:01.733Z,73.26
2022-12-27T19:32:32.997Z,73.64
2022-12-27T19:35:03.660Z,73.28
2022-12-27T19:37:33.499Z,72.87
2022-12-27T19:40:03.456Z,73.12
2022-12-27T19:42:33.354Z,73.17
2022-12-27T19:45:01.284Z,72.64
2022-12-27T19:47:28.305Z,72.01
2022-12-27T19:49:55.420Z,72.45
2022-12-27T19:52:25.638Z,72.37
2022-12-27T19:55:00.757Z,72.53
2022-12-27T19:57:27.862Z,72.59
2022-12-27T19:59:55.785Z,73.16
2022-12-27T20:02:23.827Z,73.39
2022-12-27T20:04:51.187Z,73.72
2022-12-27T20:07:25.753Z,73.83
2022-12-27T20:09:52.861Z,73.80
2022-12-27T20:12:19.868Z,73.66
2022-12-27T20:14:47.715Z,73.66
2022-12-27T20:17:14.760Z,73.13
2022-12-27T20:19:43.210Z,73.38
2022-12-27T20:22:10.241Z,73.75
2022-12-27T20:24:39.424Z,74.45
2022-12-27T20:27:06.934Z,74.97
2022-12-27T20:29:34.217Z,74.14
2022-12-27T20:32:01.611Z,74.51
2022-12-27T20:34:28.637Z,74.48
2022-12-27T20:36:55.878Z,74.36
2022-12-27T20:40:16.321Z,75.03
2022-12-27T20:42:46.742Z,74.76
2022-12-27T20:45:13.673Z,73.53
2022-12-27T20:47:40.697Z,74.15
2022-12-27T20:50:08.159Z,74.98
2022-12-27T20:52:38.579Z,74.94
2022-12-27T20:55:07.568Z,74.67
2022-12-27T20:57:35.057Z,74.81
2022-12-27T21:00:04.890Z,74.97
2022-12-27T21:02:32.539Z,75.12
2022-12-27T21:04:59.563Z,75.02
2022-12-27T21:07:26.849Z,75.35
2022-12-27T21:09:53.881Z,75.32
2022-12-27T21:12:21.013Z,75.68
2022-12-27T21:14:50.115Z,75.74
2022-12-27T21:17:18.074Z,75.56
2022-12-27T21:19:46.739Z,75.58
2022-12-27T21:22:13.853Z,75.89
2022-12-27T21:24:41.008Z,75.11
2022-12-27T21:27:09.134Z,75.09
2022-12-27T21:29:36.093Z,74.62
2022-12-27T21:32:03.409Z,74.66
2022-12-27T21:34:31.266Z,74.61
2022-12-27T21:37:01.444Z,74.68
2022-12-27T21:39:29.351Z,74.52
2022-12-27T21:41:57.090Z,74.62
2022-12-27T21:44:27.641Z,74.47
2022-12-27T21:46:54.923Z,74.22
2022-12-27T21:49:21.973Z,74.18
2022-12-27T21:51:50.073Z,73.95
2022-12-27T21:54:17.759Z,74.19
2022-12-27T21:56:45.467Z,74.31
2022-12-27T21:59:12.991Z,73.92
2022-12-27T22:01:50.163Z,74.59
2022-12-27T22:04:21.261Z,74.74
2022-12-27T22:06:49.140Z,74.94
2022-12-27T22:09:16.641Z,74.96
2022-12-27T22:11:44.052Z,74.64
2022-12-27T22:14:11.157Z,74.32
2022-12-27T22:16:40.260Z,74.46
2022-12-27T22:19:12.450Z,73.89
2022-12-27T22:21:42.019Z,74.01
2022-12-27T22:24:15.642Z,74.49
2022-12-27T22:26:43.184Z,74.41
2022-12-27T22:29:12.251Z,74.48
2022-12-27T22:31:40.349Z,74.01
2022-12-27T22:34:07.456Z,73.77
2022-12-27T22:36:35.217Z,73.61
2022-12-27T22:39:02.843Z,73.54
2022-12-27T22:41:32.003Z,73.30
2022-12-27T22:44:01.172Z,73.17
2022-12-27T22:46:39.357Z,72.70
2022-12-27T22:49:16.452Z,73.23
2022-12-27T22:51:43.617Z,73.47
2022-12-27T22:54:10.581Z,73.25
2022-12-27T22:56:42.518Z,73.09
2022-12-27T22:59:12.381Z,72.57
2022-12-27T23:01:41.483Z,72.18
2022-12-27T23:04:11.126Z,72.89
2022-12-27T23:06:40.355Z,72.63
2022-12-27T23:09:08.139Z,72.53
2022-12-27T23:11:45.387Z,72.66
2022-12-27T23:14:25.743Z,72.41
2022-12-27T23:16:53.092Z,71.38
2022-12-27T23:19:22.296Z,70.58
2022-12-27T23:21:49.527Z,70.44
2022-12-27T23:24:16.977Z,70.81
2022-12-27T23:26:44.196Z,71.57
2022-12-27T23:29:13.703Z,71.56
2022-12-27T23:31:55.309Z,71.10
2022-12-27T23:34:28.071Z,71.00
2022-12-27T23:36:57.347Z,72.11
2022-12-27T23:39:24.656Z,72.55
2022-12-27T23:41:51.504Z,72.76
2022-12-27T23:44:33.229Z,73.39
2022-12-27T23:47:05.858Z,73.90
2022-12-27T23:49:33.465Z,74.12
2022-12-27T23:52:00.309Z,74.59
2022-12-27T23:54:27.346Z,74.54
2022-12-27T23:56:54.184Z,74.64
2022-12-27T23:59:21.337Z,75.06
